sensor_id;sensor_type;location;lat;lon;timestamp;pressure;altitude;pressure_sealevel;temperature;humidity
5780;BME280;2916;49.798;10.022;2023-03-19T00:02:12;146513.56;;;9.00;84.24
5780;BME280;2916;49.798;10.022;2023-03-19T00:04:41;146507.38;;;8.97;84.42
5780;BME280;2916;49.798;10.022;2023-03-19T00:07:08;146483.81;;;8.88;84.34
5780;BME280;2916;49.798;10.022;2023-03-19T00:09:36;146482.56;;;8.87;84.29
5780;BME280;2916;49.798;10.022;2023-03-19T00:12:04;146459.06;;;8.77;85.14
5780;BME280;2916;49.798;10.022;2023-03-19T00:14:31;146440.47;;;8.70;85.26
5780;BME280;2916;49.798;10.022;2023-03-19T00:16:58;146441.69;;;8.70;85.83
5780;BME280;2916;49.798;10.022;2023-03-19T00:19:26;146347.47;;;8.31;84.47
5780;BME280;2916;49.798;10.022;2023-03-19T00:21:54;146421.88;;;8.62;84.79
5780;BME280;2916;49.798;10.022;2023-03-19T00:24:22;146409.50;;;8.57;85.43
5780;BME280;2916;49.798;10.022;2023-03-19T00:26:49;146385.91;;;8.47;85.74
5780;BME280;2916;49.798;10.022;2023-03-19T00:29:16;146340.03;;;8.28;84.53
5780;BME280;2916;49.798;10.022;2023-03-19T00:31:44;146341.25;;;8.29;84.55
5780;BME280;2916;49.798;10.022;2023-03-19T00:34:11;146316.50;;;8.19;84.92
5780;BME280;2916;49.798;10.022;2023-03-19T00:36:38;146281.81;;;8.04;85.38
5780;BME280;2916;49.798;10.022;2023-03-19T00:39:07;146327.66;;;8.23;85.45
5780;BME280;2916;49.798;10.022;2023-03-19T00:41:34;146235.97;;;7.85;85.26
5780;BME280;2916;49.798;10.022;2023-03-19T00:44:02;146285.56;;;8.06;85.53
5780;BME280;2916;49.798;10.022;2023-03-19T00:46:31;146300.38;;;8.12;85.38
5780;BME280;2916;49.798;10.022;2023-03-19T00:48:58;146233.50;;;7.84;84.74
5780;BME280;2916;49.798;10.022;2023-03-19T00:51:26;146263.22;;;7.97;85.82
5780;BME280;2916;49.798;10.022;2023-03-19T00:53:53;146268.19;;;7.99;85.44
5780;BME280;2916;49.798;10.022;2023-03-19T00:56:21;146259.53;;;7.95;85.33
5780;BME280;2916;49.798;10.022;2023-03-19T00:58:49;146171.59;;;7.59;85.51
5780;BME280;2916;49.798;10.022;2023-03-19T01:01:17;146218.66;;;7.78;86.76
5780;BME280;2916;49.798;10.022;2023-03-19T01:03:45;146217.38;;;7.78;86.87
5780;BME280;2916;49.798;10.022;2023-03-19T01:06:12;146161.69;;;7.55;86.13
5780;BME280;2916;49.798;10.022;2023-03-19T01:08:40;146093.56;;;7.27;85.67
5780;BME280;2916;49.798;10.022;2023-03-19T01:11:09;146212.47;;;7.76;85.61
5780;BME280;2916;49.798;10.022;2023-03-19T01:13:38;146207.47;;;7.74;87.46
5780;BME280;2916;49.798;10.022;2023-03-19T01:16:07;146079.97;;;7.21;86.16
5780;BME280;2916;49.798;10.022;2023-03-19T01:18:34;146203.78;;;7.72;87.77
5780;BME280;2916;49.798;10.022;2023-03-19T01:21:02;146139.38;;;7.46;89.24
5780;BME280;2916;49.798;10.022;2023-03-19T01:23:30;146195.09;;;7.69;90.02
5780;BME280;2916;49.798;10.022;2023-03-19T01:25:57;146119.56;;;7.37;90.49
5780;BME280;2916;49.798;10.022;2023-03-19T01:28:24;146024.25;;;6.98;90.74
5780;BME280;2916;49.798;10.022;2023-03-19T01:30:58;146145.59;;;7.48;90.66
5780;BME280;2916;49.798;10.022;2023-03-19T01:33:26;146149.28;;;7.50;91.30
5780;BME280;2916;49.798;10.022;2023-03-19T01:35:53;146146.81;;;7.49;92.37
5780;BME280;2916;49.798;10.022;2023-03-19T01:38:20;146145.59;;;7.48;92.52
5780;BME280;2916;49.798;10.022;2023-03-19T01:40:48;146171.59;;;7.59;92.02
5780;BME280;2916;49.798;10.022;2023-03-19T01:43:18;146053.97;;;7.10;90.25
5780;BME280;2916;49.798;10.022;2023-03-19T01:45:48;146077.50;;;7.20;90.72
5780;BME280;2916;49.798;10.022;2023-03-19T01:48:26;146117.09;;;7.36;90.26
5780;BME280;2916;49.798;10.022;2023-03-19T01:50:56;146010.66;;;6.93;90.78
5780;BME280;2916;49.798;10.022;2023-03-19T01:53:28;146065.09;;;7.15;90.43
5780;BME280;2916;49.798;10.022;2023-03-19T01:56:04;146124.53;;;7.40;89.70
5780;BME280;2916;49.798;10.022;2023-03-19T01:58:33;146097.31;;;7.28;90.09
5780;BME280;2916;49.798;10.022;2023-03-19T02:01:01;146129.47;;;7.42;89.45
5780;BME280;2916;49.798;10.022;2023-03-19T02:03:30;146107.22;;;7.32;89.77
5780;BME280;2916;49.798;10.022;2023-03-19T02:05:59;146068.84;;;7.17;90.69
5780;BME280;2916;49.798;10.022;2023-03-19T02:08:27;146057.69;;;7.12;90.81
5780;BME280;2916;49.798;10.022;2023-03-19T02:10:56;146079.97;;;7.21;91.60
5780;BME280;2916;49.798;10.022;2023-03-19T02:13:25;146077.50;;;7.20;91.94
5780;BME280;2916;49.798;10.022;2023-03-19T02:15:53;146045.28;;;7.07;92.26
5780;BME280;2916;49.798;10.022;2023-03-19T02:18:22;146065.09;;;7.15;92.39
5780;BME280;2916;49.798;10.022;2023-03-19T02:21:00;146099.78;;;7.29;92.47
5780;BME280;2916;49.798;10.022;2023-03-19T02:23:37;146077.50;;;7.20;92.73
5780;BME280;2916;49.798;10.022;2023-03-19T02:26:11;146136.91;;;7.45;93.01
5780;BME280;2916;49.798;10.022;2023-03-19T02:28:44;146051.50;;;7.09;93.08
5780;BME280;2916;49.798;10.022;2023-03-19T02:31:13;146097.31;;;7.28;92.71
5780;BME280;2916;49.798;10.022;2023-03-19T02:33:40;146105.97;;;7.32;93.45
5780;BME280;2916;49.798;10.022;2023-03-19T02:36:14;146093.56;;;7.27;92.26
5780;BME280;2916;49.798;10.022;2023-03-19T02:38:44;146072.53;;;7.18;91.86
5780;BME280;2916;49.798;10.022;2023-03-19T02:41:13;146072.53;;;7.18;90.62
5780;BME280;2916;49.798;10.022;2023-03-19T02:43:41;146032.91;;;7.02;90.99
5780;BME280;2916;49.798;10.022;2023-03-19T02:46:11;146061.41;;;7.13;91.28
5780;BME280;2916;49.798;10.022;2023-03-19T02:48:39;146055.19;;;7.11;91.58
5780;BME280;2916;49.798;10.022;2023-03-19T02:51:06;146026.72;;;6.99;91.69
5780;BME280;2916;49.798;10.022;2023-03-19T02:53:34;146045.28;;;7.07;91.58
5780;BME280;2916;49.798;10.022;2023-03-19T02:56:01;145973.53;;;6.77;91.32
5780;BME280;2916;49.798;10.022;2023-03-19T02:58:30;145978.47;;;6.79;92.06
5780;BME280;2916;49.798;10.022;2023-03-19T03:00:57;146055.19;;;7.11;91.78
5780;BME280;2916;49.798;10.022;2023-03-19T03:03:24;146071.28;;;7.18;92.43
5780;BME280;2916;49.798;10.022;2023-03-19T03:05:52;146078.72;;;7.21;92.55
5780;BME280;2916;49.798;10.022;2023-03-19T03:08:19;145938.88;;;6.63;92.82
5780;BME280;2916;49.798;10.022;2023-03-19T03:10:46;146056.47;;;7.11;93.14
5780;BME280;2916;49.798;10.022;2023-03-19T03:13:13;146039.13;;;7.04;93.42
5780;BME280;2916;49.798;10.022;2023-03-19T03:15:42;146031.69;;;7.01;93.86
5780;BME280;2916;49.798;10.022;2023-03-19T03:18:09;146055.19;;;7.11;92.68
5780;BME280;2916;49.798;10.022;2023-03-19T03:20:36;146049.03;;;7.08;93.03
5780;BME280;2916;49.798;10.022;2023-03-19T03:23:03;146062.63;;;7.14;93.45
5780;BME280;2916;49.798;10.022;2023-03-19T03:25:30;145968.56;;;6.75;93.12
5780;BME280;2916;49.798;10.022;2023-03-19T03:27:57;146075.03;;;7.19;94.52
5780;BME280;2916;49.798;10.022;2023-03-19T03:30:24;146035.38;;;7.03;95.22
5780;BME280;2916;49.798;10.022;2023-03-19T03:32:53;146112.13;;;7.34;95.53
5780;BME280;2916;49.798;10.022;2023-03-19T03:35:20;146124.53;;;7.40;95.55
5780;BME280;2916;49.798;10.022;2023-03-19T03:37:47;146143.13;;;7.47;95.04
5780;BME280;2916;49.798;10.022;2023-03-19T03:40:15;146176.53;;;7.61;94.06
5780;BME280;2916;49.798;10.022;2023-03-19T03:42:43;146133.22;;;7.43;94.36
5780;BME280;2916;49.798;10.022;2023-03-19T03:45:11;146159.19;;;7.54;94.29
5780;BME280;2916;49.798;10.022;2023-03-19T03:47:39;146159.19;;;7.54;94.73
5780;BME280;2916;49.798;10.022;2023-03-19T03:50:09;146104.75;;;7.31;94.51
5780;BME280;2916;49.798;10.022;2023-03-19T03:52:37;146171.59;;;7.59;93.69
5780;BME280;2916;49.798;10.022;2023-03-19T03:55:05;146157.97;;;7.53;94.22
5780;BME280;2916;49.798;10.022;2023-03-19T03:57:34;146129.47;;;7.42;93.47
5780;BME280;2916;49.798;10.022;2023-03-19T04:00:02;146169.09;;;7.58;93.74
5780;BME280;2916;49.798;10.022;2023-03-19T04:02:29;146174.06;;;7.60;93.79
5780;BME280;2916;49.798;10.022;2023-03-19T04:04:57;146119.56;;;7.37;94.35
5780;BME280;2916;49.798;10.022;2023-03-19T04:07:25;146112.13;;;7.34;93.78
5780;BME280;2916;49.798;10.022;2023-03-19T04:09:53;146112.13;;;7.34;94.99
5780;BME280;2916;49.798;10.022;2023-03-19T04:12:20;146191.41;;;7.67;94.17
5780;BME280;2916;49.798;10.022;2023-03-19T04:14:47;146196.34;;;7.69;94.12
5780;BME280;2916;49.798;10.022;2023-03-19T04:17:14;146013.13;;;6.94;93.66
5780;BME280;2916;49.798;10.022;2023-03-19T04:19:41;146031.69;;;7.01;93.66
5780;BME280;2916;49.798;10.022;2023-03-19T04:22:09;146092.34;;;7.26;93.58
5780;BME280;2916;49.798;10.022;2023-03-19T04:24:37;146171.59;;;7.59;94.28
5780;BME280;2916;49.798;10.022;2023-03-19T04:27:06;146146.81;;;7.49;93.46
5780;BME280;2916;49.798;10.022;2023-03-19T04:29:33;146109.69;;;7.33;92.76
5780;BME280;2916;49.798;10.022;2023-03-19T04:32:00;146144.34;;;7.48;93.82
5780;BME280;2916;49.798;10.022;2023-03-19T04:34:28;146187.66;;;7.66;92.43
5780;BME280;2916;49.798;10.022;2023-03-19T04:36:55;146149.28;;;7.50;91.46
5780;BME280;2916;49.798;10.022;2023-03-19T04:39:22;146232.28;;;7.84;91.09
5780;BME280;2916;49.798;10.022;2023-03-19T04:41:51;146201.31;;;7.71;91.48
5780;BME280;2916;49.798;10.022;2023-03-19T04:44:18;146229.81;;;7.83;91.47
5780;BME280;2916;49.798;10.022;2023-03-19T04:46:45;146229.81;;;7.83;91.71
5780;BME280;2916;49.798;10.022;2023-03-19T04:49:12;146235.97;;;7.85;90.42
5780;BME280;2916;49.798;10.022;2023-03-19T04:51:40;146260.75;;;7.96;90.44
5780;BME280;2916;49.798;10.022;2023-03-19T04:54:08;146217.38;;;7.78;91.00
5780;BME280;2916;49.798;10.022;2023-03-19T04:56:35;146271.91;;;8.00;89.07
5780;BME280;2916;49.798;10.022;2023-03-19T04:59:04;146290.47;;;8.08;88.04
5780;BME280;2916;49.798;10.022;2023-03-19T05:01:31;146161.69;;;7.55;87.14
5780;BME280;2916;49.798;10.022;2023-03-19T05:03:58;146264.44;;;7.97;89.21
5780;BME280;2916;49.798;10.022;2023-03-19T05:06:26;146302.84;;;8.13;88.11
5780;BME280;2916;49.798;10.022;2023-03-19T05:08:53;146327.66;;;8.23;87.40
5780;BME280;2916;49.798;10.022;2023-03-19T05:11:21;146347.47;;;8.31;86.14
5780;BME280;2916;49.798;10.022;2023-03-19T05:13:48;146345.00;;;8.30;84.98
5780;BME280;2916;49.798;10.022;2023-03-19T05:16:16;146382.22;;;8.46;83.80
5780;BME280;2916;49.798;10.022;2023-03-19T05:18:43;146402.03;;;8.54;83.18
5780;BME280;2916;49.798;10.022;2023-03-19T05:21:11;146419.41;;;8.61;82.62
5780;BME280;2916;49.798;10.022;2023-03-19T05:23:39;146394.59;;;8.51;81.58
5780;BME280;2916;49.798;10.022;2023-03-19T05:26:06;146243.41;;;7.88;81.98
5780;BME280;2916;49.798;10.022;2023-03-19T05:28:34;146288.00;;;8.07;82.29
5780;BME280;2916;49.798;10.022;2023-03-19T05:31:03;146430.53;;;8.66;83.52
5780;BME280;2916;49.798;10.022;2023-03-19T05:33:32;146420.63;;;8.62;83.86
5780;BME280;2916;49.798;10.022;2023-03-19T05:35:59;146268.19;;;7.99;84.57
5780;BME280;2916;49.798;10.022;2023-03-19T05:38:26;146322.66;;;8.21;85.98
5780;BME280;2916;49.798;10.022;2023-03-19T05:40:53;146362.41;;;8.38;86.99
5780;BME280;2916;49.798;10.022;2023-03-19T05:43:20;146372.31;;;8.42;86.49
5780;BME280;2916;49.798;10.022;2023-03-19T05:45:50;146374.78;;;8.43;87.19
5780;BME280;2916;49.798;10.022;2023-03-19T05:48:18;146368.56;;;8.40;88.31
5780;BME280;2916;49.798;10.022;2023-03-19T05:50:46;146290.47;;;8.08;88.66
5780;BME280;2916;49.798;10.022;2023-03-19T05:53:14;146322.66;;;8.21;89.47
5780;BME280;2916;49.798;10.022;2023-03-19T05:55:42;146379.72;;;8.45;90.01
5780;BME280;2916;49.798;10.022;2023-03-19T05:58:09;146383.47;;;8.46;91.46
5780;BME280;2916;49.798;10.022;2023-03-19T06:00:36;146346.22;;;8.31;92.38
5780;BME280;2916;49.798;10.022;2023-03-19T06:03:03;146305.38;;;8.14;93.31
5780;BME280;2916;49.798;10.022;2023-03-19T06:05:31;146413.19;;;8.58;93.83
5780;BME280;2916;49.798;10.022;2023-03-19T06:07:59;146354.91;;;8.34;95.44
5780;BME280;2916;49.798;10.022;2023-03-19T06:10:26;146430.53;;;8.66;96.98
5780;BME280;2916;49.798;10.022;2023-03-19T06:12:54;146446.63;;;8.72;96.71
5780;BME280;2916;49.798;10.022;2023-03-19T06:15:21;146456.59;;;8.76;97.78
5780;BME280;2916;49.798;10.022;2023-03-19T06:17:48;146460.28;;;8.78;98.46
5780;BME280;2916;49.798;10.022;2023-03-19T06:20:16;146463.97;;;8.79;99.57
5780;BME280;2916;49.798;10.022;2023-03-19T06:22:44;146449.13;;;8.73;100.00
5780;BME280;2916;49.798;10.022;2023-03-19T06:25:12;146471.44;;;8.82;100.00
5780;BME280;2916;49.798;10.022;2023-03-19T06:27:39;146449.13;;;8.73;100.00
5780;BME280;2916;49.798;10.022;2023-03-19T06:30:08;146451.59;;;8.74;100.00
5780;BME280;2916;49.798;10.022;2023-03-19T06:32:36;146486.31;;;8.89;100.00
5780;BME280;2916;49.798;10.022;2023-03-19T06:35:04;146499.94;;;8.94;100.00
5780;BME280;2916;49.798;10.022;2023-03-19T06:37:31;146421.88;;;8.62;100.00
5780;BME280;2916;49.798;10.022;2023-03-19T06:39:59;146506.16;;;8.97;100.00
5780;BME280;2916;49.798;10.022;2023-03-19T06:42:30;146478.88;;;8.85;100.00
5780;BME280;2916;49.798;10.022;2023-03-19T06:44:58;146459.06;;;8.77;100.00
5780;BME280;2916;49.798;10.022;2023-03-19T06:47:25;146548.28;;;9.14;100.00
5780;BME280;2916;49.798;10.022;2023-03-19T06:49:52;146532.16;;;9.07;100.00
5780;BME280;2916;49.798;10.022;2023-03-19T06:52:19;146580.50;;;9.27;100.00
5780;BME280;2916;49.798;10.022;2023-03-19T06:54:47;146530.91;;;9.07;100.00
5780;BME280;2916;49.798;10.022;2023-03-19T06:57:14;146597.84;;;9.34;100.00
5780;BME280;2916;49.798;10.022;2023-03-19T06:59:42;146533.44;;;9.08;100.00
5780;BME280;2916;49.798;10.022;2023-03-19T07:02:10;146528.44;;;9.06;100.00
5780;BME280;2916;49.798;10.022;2023-03-19T07:04:38;146585.47;;;9.29;100.00
5780;BME280;2916;49.798;10.022;2023-03-19T07:07:05;146578.03;;;9.26;100.00
5780;BME280;2916;49.798;10.022;2023-03-19T07:09:32;146663.59;;;9.62;99.54
5780;BME280;2916;49.798;10.022;2023-03-19T07:11:59;146678.50;;;9.68;98.44
5780;BME280;2916;49.798;10.022;2023-03-19T07:14:27;146697.09;;;9.75;100.00
5780;BME280;2916;49.798;10.022;2023-03-19T07:16:55;146700.78;;;9.77;100.00
5780;BME280;2916;49.798;10.022;2023-03-19T07:19:22;146698.31;;;9.76;99.39
5780;BME280;2916;49.798;10.022;2023-03-19T07:21:50;146724.38;;;9.87;99.92
5780;BME280;2916;49.798;10.022;2023-03-19T07:24:17;146659.88;;;9.60;98.27
5780;BME280;2916;49.798;10.022;2023-03-19T07:26:44;146741.72;;;9.94;99.19
5780;BME280;2916;49.798;10.022;2023-03-19T07:29:12;146751.63;;;9.98;98.65
5780;BME280;2916;49.798;10.022;2023-03-19T07:31:40;146775.22;;;10.07;99.24
5780;BME280;2916;49.798;10.022;2023-03-19T07:34:09;146774.00;;;10.07;100.00
5780;BME280;2916;49.798;10.022;2023-03-19T07:36:36;146781.44;;;10.10;99.13
5780;BME280;2916;49.798;10.022;2023-03-19T07:39:04;146788.84;;;10.13;99.95
5780;BME280;2916;49.798;10.022;2023-03-19T07:41:31;146771.47;;;10.06;99.65
5780;BME280;2916;49.798;10.022;2023-03-19T07:43:58;146791.38;;;10.14;100.00
5780;BME280;2916;49.798;10.022;2023-03-19T07:46:25;146777.69;;;10.08;99.62
5780;BME280;2916;49.798;10.022;2023-03-19T07:48:53;146786.38;;;10.12;99.13
5780;BME280;2916;49.798;10.022;2023-03-19T07:51:21;146813.69;;;10.23;97.18
5780;BME280;2916;49.798;10.022;2023-03-19T07:53:48;146821.19;;;10.26;99.38
5780;BME280;2916;49.798;10.022;2023-03-19T07:56:15;146803.75;;;10.19;98.31
5780;BME280;2916;49.798;10.022;2023-03-19T07:58:43;146819.94;;;10.26;99.90
5780;BME280;2916;49.798;10.022;2023-03-19T08:01:10;146801.28;;;10.18;100.00
5780;BME280;2916;49.798;10.022;2023-03-19T08:03:37;146814.91;;;10.24;100.00
5780;BME280;2916;49.798;10.022;2023-03-19T08:06:05;146801.28;;;10.18;98.65
5780;BME280;2916;49.798;10.022;2023-03-19T08:08:33;146838.56;;;10.34;99.09
5780;BME280;2916;49.798;10.022;2023-03-19T08:11:01;146850.97;;;10.39;98.72
5780;BME280;2916;49.798;10.022;2023-03-19T08:13:28;146819.94;;;10.26;99.54
5780;BME280;2916;49.798;10.022;2023-03-19T08:15:56;146852.19;;;10.39;100.00
5780;BME280;2916;49.798;10.022;2023-03-19T08:18:23;146863.34;;;10.44;100.00
5780;BME280;2916;49.798;10.022;2023-03-19T08:20:51;146860.88;;;10.43;100.00
5780;BME280;2916;49.798;10.022;2023-03-19T08:23:18;146850.97;;;10.39;100.00
5780;BME280;2916;49.798;10.022;2023-03-19T08:25:47;146843.50;;;10.36;100.00
5780;BME280;2916;49.798;10.022;2023-03-19T08:28:16;146843.50;;;10.36;100.00
5780;BME280;2916;49.798;10.022;2023-03-19T08:30:43;146843.50;;;10.36;100.00
5780;BME280;2916;49.798;10.022;2023-03-19T08:33:11;146850.97;;;10.39;100.00
5780;BME280;2916;49.798;10.022;2023-03-19T08:35:38;146859.66;;;10.42;100.00
5780;BME280;2916;49.798;10.022;2023-03-19T08:38:05;146796.31;;;10.16;100.00
5780;BME280;2916;49.798;10.022;2023-03-19T08:40:32;146860.88;;;10.43;100.00
5780;BME280;2916;49.798;10.022;2023-03-19T08:43:01;146886.94;;;10.53;100.00
5780;BME280;2916;49.798;10.022;2023-03-19T08:45:28;146890.66;;;10.55;100.00
5780;BME280;2916;49.798;10.022;2023-03-19T08:47:56;146845.97;;;10.37;100.00
5780;BME280;2916;49.798;10.022;2023-03-19T08:50:23;146922.91;;;10.68;100.00
5780;BME280;2916;49.798;10.022;2023-03-19T08:52:51;146910.50;;;10.63;99.27
5780;BME280;2916;49.798;10.022;2023-03-19T08:55:18;146909.28;;;10.63;98.32
5780;BME280;2916;49.798;10.022;2023-03-19T08:57:45;146905.56;;;10.61;99.14
5780;BME280;2916;49.798;10.022;2023-03-19T09:00:16;146946.50;;;10.78;97.37
5780;BME280;2916;49.798;10.022;2023-03-19T09:02:44;146922.91;;;10.68;98.92
5780;BME280;2916;49.798;10.022;2023-03-19T09:05:11;146962.66;;;10.85;98.15
5780;BME280;2916;49.798;10.022;2023-03-19T09:07:38;146965.13;;;10.86;98.88
5780;BME280;2916;49.798;10.022;2023-03-19T09:10:06;146945.28;;;10.77;98.75
5780;BME280;2916;49.798;10.022;2023-03-19T09:12:34;146961.38;;;10.84;98.06
5780;BME280;2916;49.798;10.022;2023-03-19T09:15:01;146992.44;;;10.97;96.85
5780;BME280;2916;49.798;10.022;2023-03-19T09:17:30;147007.31;;;11.03;96.80
5780;BME280;2916;49.798;10.022;2023-03-19T09:19:57;147014.78;;;11.06;95.76
5780;BME280;2916;49.798;10.022;2023-03-19T09:22:24;146952.69;;;10.80;96.48
5780;BME280;2916;49.798;10.022;2023-03-19T09:24:52;147076.81;;;11.31;95.45
5780;BME280;2916;49.798;10.022;2023-03-19T09:27:19;147114.06;;;11.47;94.53
5780;BME280;2916;49.798;10.022;2023-03-19T09:29:46;147125.28;;;11.51;93.78
5780;BME280;2916;49.798;10.022;2023-03-19T09:32:13;147145.16;;;11.60;92.93
5780;BME280;2916;49.798;10.022;2023-03-19T09:34:42;147228.38;;;11.94;93.25
5780;BME280;2916;49.798;10.022;2023-03-19T09:37:09;147228.38;;;11.94;91.33
5780;BME280;2916;49.798;10.022;2023-03-19T09:39:37;147160.03;;;11.66;90.31
5780;BME280;2916;49.798;10.022;2023-03-19T09:42:30;147348.91;;;12.43;91.07
5780;BME280;2916;49.798;10.022;2023-03-19T09:45:11;147355.13;;;12.46;90.16
5780;BME280;2916;49.798;10.022;2023-03-19T09:47:50;147379.97;;;12.56;89.39
5780;BME280;2916;49.798;10.022;2023-03-19T09:50:24;147258.19;;;12.06;86.05
5780;BME280;2916;49.798;10.022;2023-03-19T09:53:01;147396.13;;;12.63;86.69
5780;BME280;2916;49.798;10.022;2023-03-19T09:55:40;147430.91;;;12.77;86.05
5780;BME280;2916;49.798;10.022;2023-03-19T09:58:14;147457.00;;;12.88;84.24
5780;BME280;2916;49.798;10.022;2023-03-19T10:00:45;147430.91;;;12.77;83.20
5780;BME280;2916;49.798;10.022;2023-03-19T10:03:34;147511.72;;;13.10;83.42
5780;BME280;2916;49.798;10.022;2023-03-19T10:06:24;147433.41;;;12.78;83.04
5780;BME280;2916;49.798;10.022;2023-03-19T10:09:37;147525.38;;;13.16;83.41
5780;BME280;2916;49.798;10.022;2023-03-19T10:12:25;147611.22;;;13.51;82.23
5780;BME280;2916;49.798;10.022;2023-03-19T10:15:21;147690.81;;;13.84;81.70
5780;BME280;2916;49.798;10.022;2023-03-19T10:17:59;147633.63;;;13.60;78.85
5780;BME280;2916;49.798;10.022;2023-03-19T10:20:45;147725.63;;;13.98;80.04
5780;BME280;2916;49.798;10.022;2023-03-19T10:23:38;147832.59;;;14.42;79.49
5780;BME280;2916;49.798;10.022;2023-03-19T10:26:11;147725.63;;;13.98;77.44
5780;BME280;2916;49.798;10.022;2023-03-19T10:28:42;147850.06;;;14.49;78.27
5780;BME280;2916;49.798;10.022;2023-03-19T10:31:26;147935.94;;;14.84;76.69
5780;BME280;2916;49.798;10.022;2023-03-19T10:34:19;147924.75;;;14.80;75.44
5780;BME280;2916;49.798;10.022;2023-03-19T10:36:49;147929.75;;;14.82;75.62
5780;BME280;2916;49.798;10.022;2023-03-19T10:39:18;147975.75;;;15.01;74.12
5780;BME280;2916;49.798;10.022;2023-03-19T10:41:50;147979.53;;;15.02;73.51
5780;BME280;2916;49.798;10.022;2023-03-19T10:44:30;148009.41;;;15.14;72.02
5780;BME280;2916;49.798;10.022;2023-03-19T10:47:03;147979.53;;;15.02;72.55
5780;BME280;2916;49.798;10.022;2023-03-19T10:49:35;148031.78;;;15.23;70.47
5780;BME280;2916;49.798;10.022;2023-03-19T10:52:03;148006.91;;;15.13;72.14
5780;BME280;2916;49.798;10.022;2023-03-19T10:54:39;147984.50;;;15.04;72.44
5780;BME280;2916;49.798;10.022;2023-03-19T10:57:23;147924.75;;;14.80;72.49
5780;BME280;2916;49.798;10.022;2023-03-19T10:59:51;147896.13;;;14.68;71.30
5780;BME280;2916;49.798;10.022;2023-03-19T11:02:21;147886.19;;;14.64;70.57
5780;BME280;2916;49.798;10.022;2023-03-19T11:05:05;148079.09;;;15.43;71.31
5780;BME280;2916;49.798;10.022;2023-03-19T11:07:35;148066.66;;;15.38;68.30
5780;BME280;2916;49.798;10.022;2023-03-19T11:10:11;148048.00;;;15.30;68.24
5780;BME280;2916;49.798;10.022;2023-03-19T11:12:40;148136.44;;;15.66;66.61
5780;BME280;2916;49.798;10.022;2023-03-19T11:15:19;148059.19;;;15.35;69.00
5780;BME280;2916;49.798;10.022;2023-03-19T11:17:55;148143.91;;;15.69;66.35
5780;BME280;2916;49.798;10.022;2023-03-19T11:20:29;148112.75;;;15.57;68.10
5780;BME280;2916;49.798;10.022;2023-03-19T11:22:58;148196.19;;;15.91;65.44
5780;BME280;2916;49.798;10.022;2023-03-19T11:25:34;148265.97;;;16.19;67.22
5780;BME280;2916;49.798;10.022;2023-03-19T11:28:07;148217.41;;;16.00;63.68
5780;BME280;2916;49.798;10.022;2023-03-19T11:30:45;148193.72;;;15.90;62.52
5780;BME280;2916;49.798;10.022;2023-03-19T11:33:53;148365.63;;;16.60;62.76
5780;BME280;2916;49.798;10.022;2023-03-19T11:36:28;148442.94;;;16.92;61.98
5780;BME280;2916;49.798;10.022;2023-03-19T11:39:18;148257.25;;;16.16;62.77
5780;BME280;2916;49.798;10.022;2023-03-19T11:42:27;148241.03;;;16.09;61.94
5780;BME280;2916;49.798;10.022;2023-03-19T11:45:11;148414.25;;;16.80;63.86
5780;BME280;2916;49.798;10.022;2023-03-19T11:47:53;148330.72;;;16.46;60.01
5780;BME280;2916;49.798;10.022;2023-03-19T11:50:29;148380.59;;;16.66;59.60
5780;BME280;2916;49.798;10.022;2023-03-19T11:53:13;148338.22;;;16.49;58.59
5780;BME280;2916;49.798;10.022;2023-03-19T11:55:53;148336.97;;;16.49;59.06
5780;BME280;2916;49.798;10.022;2023-03-19T11:58:56;148360.63;;;16.58;59.56
5780;BME280;2916;49.798;10.022;2023-03-19T12:02:24;148472.81;;;17.04;59.37
5780;BME280;2916;49.798;10.022;2023-03-19T12:05:12;148507.75;;;17.18;58.43
5780;BME280;2916;49.798;10.022;2023-03-19T12:07:54;148515.25;;;17.22;55.99
5780;BME280;2916;49.798;10.022;2023-03-19T12:10:41;148596.25;;;17.55;56.59
5780;BME280;2916;49.798;10.022;2023-03-19T12:16:21;148436.69;;;16.89;55.77
5780;BME280;2916;49.798;10.022;2023-03-19T12:19:26;148496.53;;;17.14;55.47
5780;BME280;2916;49.798;10.022;2023-03-19T12:22:08;148425.47;;;16.85;56.79
5780;BME280;2916;49.798;10.022;2023-03-19T12:25:03;148442.94;;;16.92;57.10
5780;BME280;2916;49.798;10.022;2023-03-19T12:27:37;148455.38;;;16.97;57.84
5780;BME280;2916;49.798;10.022;2023-03-19T12:30:17;148379.31;;;16.66;58.25
5780;BME280;2916;49.798;10.022;2023-03-19T12:33:10;148420.50;;;16.83;55.09
5780;BME280;2916;49.798;10.022;2023-03-19T12:35:48;148436.69;;;16.89;54.96
5780;BME280;2916;49.798;10.022;2023-03-19T12:38:22;148436.69;;;16.89;55.19
5780;BME280;2916;49.798;10.022;2023-03-19T12:40:57;148462.88;;;17.00;53.64
5780;BME280;2916;49.798;10.022;2023-03-19T12:43:32;148415.50;;;16.81;54.69
5780;BME280;2916;49.798;10.022;2023-03-19T12:46:08;148428.00;;;16.86;56.49
5780;BME280;2916;49.798;10.022;2023-03-19T12:48:45;148424.22;;;16.84;56.09
5780;BME280;2916;49.798;10.022;2023-03-19T12:51:19;148447.94;;;16.94;55.41
5780;BME280;2916;49.798;10.022;2023-03-19T12:53:53;148512.72;;;17.21;55.03
5780;BME280;2916;49.798;10.022;2023-03-19T12:56:32;148487.81;;;17.10;55.12
5780;BME280;2916;49.798;10.022;2023-03-19T12:59:12;148435.44;;;16.89;54.71
5780;BME280;2916;49.798;10.022;2023-03-19T13:01:48;148425.47;;;16.85;55.14
5780;BME280;2916;49.798;10.022;2023-03-19T13:04:23;148423.00;;;16.84;55.03
5780;BME280;2916;49.798;10.022;2023-03-19T13:06:58;148450.41;;;16.95;55.38
5780;BME280;2916;49.798;10.022;2023-03-19T13:09:33;148400.56;;;16.75;55.98
5780;BME280;2916;49.798;10.022;2023-03-19T13:12:07;148358.13;;;16.57;55.70
5780;BME280;2916;49.798;10.022;2023-03-19T13:14:48;148393.03;;;16.72;55.33
5780;BME280;2916;49.798;10.022;2023-03-19T13:17:27;148390.56;;;16.71;56.58
5780;BME280;2916;49.798;10.022;2023-03-19T13:20:05;148308.31;;;16.37;56.37
5780;BME280;2916;49.798;10.022;2023-03-19T13:22:36;148201.19;;;15.93;57.29
5780;BME280;2916;49.798;10.022;2023-03-19T13:25:14;148360.63;;;16.58;56.50
5780;BME280;2916;49.798;10.022;2023-03-19T13:27:42;148004.41;;;15.12;57.01
5780;BME280;2916;49.798;10.022;2023-03-19T13:30:21;148440.44;;;16.91;54.51